Time;durP1;ratioP1;P1;durP2;ratioP2;P2;SDS_P1;SDS_P2;PMS_P1;PMS_P2;Temp;Humidity;BMP_temperature;BMP_pressure;BME280_temperature;BME280_humidity;BME280_pressure;Samples;Min_cycle;Max_cycle;Signal;HPM_P1;HPM_P2
2021/07/05 00:01:38;;;;;;;0.93;0.68;;;;;;;23.06;51.18;100644.69;5045244;28;20083;-61
2021/07/05 00:04:04;;;;;;;0.55;0.52;;;;;;;23.03;51.21;100639.66;5049009;28;20049;-61
2021/07/05 00:06:30;;;;;;;0.63;0.47;;;;;;;23.09;51.54;100654.34;5065186;28;20024;-61
2021/07/05 00:08:55;;;;;;;1.80;0.93;;;;;;;23.09;50.66;100648.88;5063417;28;20021;-61
2021/07/05 00:11:20;;;;;;;3.63;0.80;;;;;;;23.11;51.49;100652.25;5039322;28;20017;-62
2021/07/05 00:13:46;;;;;;;1.00;0.50;;;;;;;23.12;50.63;100641.09;5042566;28;20079;-61
2021/07/05 00:16:11;;;;;;;1.48;0.82;;;;;;;23.15;51.74;100653.50;5062208;28;20055;-61
2021/07/05 00:18:36;;;;;;;1.98;0.60;;;;;;;23.19;51.64;100643.81;5058775;28;20016;-61
2021/07/05 00:21:02;;;;;;;1.17;0.77;;;;;;;23.23;50.99;100645.03;5052292;28;20031;-62
2021/07/05 00:23:27;;;;;;;0.57;0.57;;;;;;;23.26;51.18;100638.31;5052268;28;20036;-62
2021/07/05 00:25:53;;;;;;;0.77;0.77;;;;;;;23.29;51.23;100633.25;5050969;28;20052;-62
2021/07/05 00:28:18;;;;;;;1.52;0.52;;;;;;;23.37;51.40;100635.75;5052487;28;20032;-62
2021/07/05 00:30:44;;;;;;;4.43;0.63;;;;;;;23.39;51.29;100628.22;5052207;28;20087;-62
2021/07/05 00:33:09;;;;;;;2.00;0.50;;;;;;;23.47;51.66;100638.91;5052021;28;20473;-61
2021/07/05 00:35:35;;;;;;;2.78;0.70;;;;;;;23.49;50.98;100631.31;5052251;28;20053;-62
2021/07/05 00:38:00;;;;;;;0.93;0.57;;;;;;;23.58;51.53;100626.44;5052059;28;20032;-61
2021/07/05 00:40:28;;;;;;;3.00;0.75;;;;;;;23.64;51.37;100626.41;5052140;28;20033;-62
2021/07/05 00:42:55;;;;;;;1.13;0.40;;;;;;;23.68;51.51;100621.31;5062147;28;20025;-61
2021/07/05 00:45:22;;;;;;;4.85;0.70;;;;;;;23.72;50.93;100611.63;5063228;28;20028;-61
2021/07/05 00:47:47;;;;;;;0.60;0.40;;;;;;;23.73;51.10;100607.81;5065302;28;20044;-62
2021/07/05 00:50:14;;;;;;;3.58;0.50;;;;;;;23.77;51.06;100612.63;5060443;28;20029;-62
2021/07/05 00:52:41;;;;;;;3.72;0.68;;;;;;;23.80;50.74;100610.50;5062630;28;20021;-61
2021/07/05 00:55:09;;;;;;;6.28;0.88;;;;;;;23.79;50.97;100606.94;5069168;28;20028;-61
2021/07/05 00:57:34;;;;;;;1.33;1.20;;;;;;;23.83;51.69;100619.13;5051225;28;20021;-61
2021/07/05 01:00:00;;;;;;;2.47;0.47;;;;;;;23.84;51.58;100622.69;5068412;28;20032;-61
2021/07/05 01:02:27;;;;;;;2.17;0.80;;;;;;;23.86;50.90;100620.56;5069148;28;20060;-61
2021/07/05 01:04:53;;;;;;;2.08;0.77;;;;;;;23.86;50.83;100615.94;5060563;28;20068;-62
2021/07/05 01:07:20;;;;;;;3.60;0.90;;;;;;;23.89;51.18;100623.72;5039758;28;20428;-61
2021/07/05 01:09:46;;;;;;;1.52;0.60;;;;;;;23.89;51.88;100626.44;5057747;28;20457;-62
2021/07/05 01:12:11;;;;;;;2.65;0.80;;;;;;;23.91;51.34;100632.53;5057658;28;20071;-61
2021/07/05 01:14:37;;;;;;;0.57;0.57;;;;;;;23.95;51.87;100627.47;5057303;28;20017;-62
2021/07/05 01:17:10;;;;;;;5.75;0.60;;;;;;;23.99;51.13;100628.69;5057582;28;20025;-62
2021/07/05 01:19:35;;;;;;;;;;;;;;;24.04;50.84;100626.09;5057610;28;20025;-62
2021/07/05 01:22:01;;;;;;;3.67;1.42;;;;;;;24.06;51.79;100626.75;5056941;28;20376;-62
2021/07/05 01:24:26;;;;;;;3.20;0.82;;;;;;;24.09;51.79;100623.56;5056855;28;20115;-61
2021/07/05 01:26:51;;;;;;;3.03;0.80;;;;;;;24.12;50.84;100612.22;5056793;28;20526;-61
2021/07/05 01:29:17;;;;;;;1.73;0.70;;;;;;;24.12;51.45;100607.56;5057460;28;20024;-62
2021/07/05 01:31:42;;;;;;;3.08;0.70;;;;;;;24.12;51.03;100601.25;5057087;28;20369;-60
2021/07/05 01:34:07;;;;;;;2.35;0.60;;;;;;;24.17;51.62;100604.16;5056966;28;20369;-62
2021/07/05 01:36:33;;;;;;;0.85;0.75;;;;;;;24.18;52.07;100608.56;5056689;28;20117;-61
2021/07/05 01:38:58;;;;;;;1.83;0.95;;;;;;;24.19;51.94;100596.56;5056516;28;20020;-61
2021/07/05 01:41:24;;;;;;;3.00;1.08;;;;;;;24.16;51.72;100597.00;5056762;28;20465;-62
2021/07/05 01:43:49;;;;;;;1.92;0.77;;;;;;;24.21;52.10;100599.91;5056820;28;20051;-61
2021/07/05 01:46:16;;;;;;;2.22;0.75;;;;;;;24.22;51.77;100601.59;5056489;28;20099;-61
2021/07/05 01:48:41;;;;;;;3.22;0.70;;;;;;;24.24;52.05;100596.72;5056657;28;20025;-61
2021/07/05 01:51:07;;;;;;;4.90;1.05;;;;;;;24.26;51.10;100600.09;5056850;28;20051;-61
2021/07/05 01:53:33;;;;;;;1.17;0.65;;;;;;;24.26;51.69;100598.16;5056805;28;20021;-62
2021/07/05 01:55:58;;;;;;;2.60;0.90;;;;;;;24.22;52.03;100593.38;5056504;28;20049;-62
2021/07/05 01:58:24;;;;;;;1.77;0.80;;;;;;;24.25;51.86;100601.16;5056079;28;20028;-62
2021/07/05 02:00:51;;;;;;;4.80;0.73;;;;;;;24.23;52.10;100606.81;5056408;28;20032;-61
2021/07/05 02:03:17;;;;;;;4.97;1.27;;;;;;;24.15;52.58;100600.78;5056500;28;20043;-59
2021/07/05 02:05:44;;;;;;;5.82;0.95;;;;;;;24.05;52.13;100616.84;5055142;28;20059;-61
2021/07/05 02:08:11;;;;;;;3.75;0.80;;;;;;;23.95;52.07;100619.25;5056171;28;20516;-62
2021/07/05 02:10:37;;;;;;;2.10;0.90;;;;;;;23.85;52.63;100616.16;5056201;28;20025;-61
2021/07/05 02:13:15;;;;;;;2.90;0.85;;;;;;;23.75;53.57;100609.28;5056281;28;20480;-62
2021/07/05 02:15:41;;;;;;;2.92;0.65;;;;;;;23.66;52.90;100610.59;5056374;28;20062;-61
2021/07/05 02:18:07;;;;;;;2.80;1.02;;;;;;;23.65;53.31;100617.13;5055801;28;20025;-62
2021/07/05 02:20:33;;;;;;;1.73;0.98;;;;;;;23.60;53.66;100629.78;5056099;28;20024;-62
2021/07/05 02:23:00;;;;;;;1.75;0.82;;;;;;;23.53;53.17;100627.09;5056114;28;20075;-63
2021/07/05 02:25:28;;;;;;;0.60;0.60;;;;;;;23.41;53.86;100633.44;5056011;28;20036;-63
2021/07/05 02:27:55;;;;;;;0.88;0.50;;;;;;;23.26;53.13;100628.22;5056399;28;20025;-63
2021/07/05 02:30:21;;;;;;;2.95;1.00;;;;;;;23.15;54.02;100631.63;5055925;28;20568;-62
2021/07/05 02:32:47;;;;;;;1.00;0.88;;;;;;;23.05;53.78;100631.25;5056237;28;20031;-62
2021/07/05 02:35:14;;;;;;;2.38;1.05;;;;;;;22.94;53.56;100635.50;5038298;28;20071;-63
2021/07/05 02:37:42;;;;;;;0.57;0.57;;;;;;;22.88;53.33;100647.28;5055938;28;20384;-61
2021/07/05 02:40:11;;;;;;;3.08;0.60;;;;;;;22.79;53.35;100642.22;5055989;28;20027;-61
2021/07/05 02:42:37;;;;;;;0.82;0.60;;;;;;;22.75;53.51;100650.03;5055499;28;20033;-61
2021/07/05 02:45:07;;;;;;;1.05;0.60;;;;;;;22.72;52.78;100652.34;5056068;28;20108;-61
2021/07/05 02:47:33;;;;;;;1.55;0.85;;;;;;;22.67;53.01;100665.81;5055428;28;20075;-62
2021/07/05 02:49:59;;;;;;;0.80;0.75;;;;;;;22.63;53.85;100668.06;5055299;28;20024;-61
2021/07/05 02:52:24;;;;;;;0.47;0.47;;;;;;;22.56;53.10;100665.34;5055462;28;20457;-61
2021/07/05 02:54:50;;;;;;;0.52;0.50;;;;;;;22.54;53.72;100672.06;5055434;28;20432;-62
2021/07/05 02:57:30;;;;;;;0.85;0.65;;;;;;;22.47;53.96;100669.31;5055805;28;20112;-62
2021/07/05 03:00:10;;;;;;;4.05;0.70;;;;;;;22.41;52.98;100662.00;5055273;28;20461;-63
2021/07/05 03:02:35;;;;;;;0.88;0.82;;;;;;;22.33;53.68;100670.41;5055510;28;20572;-62
2021/07/05 03:05:02;;;;;;;1.50;0.50;;;;;;;22.27;52.90;100668.50;5033992;28;20132;-62
2021/07/05 03:07:28;;;;;;;0.93;0.65;;;;;;;22.28;52.98;100678.34;5035362;28;20470;-62
2021/07/05 03:09:54;;;;;;;0.52;0.45;;;;;;;22.25;53.41;100681.50;5035365;28;20017;-62
2021/07/05 03:12:20;;;;;;;0.55;0.50;;;;;;;22.17;53.99;100678.97;5035733;28;20051;-62
2021/07/05 03:14:46;;;;;;;0.45;0.45;;;;;;;22.15;54.05;100675.63;5035086;28;20080;-62
2021/07/05 03:17:11;;;;;;;2.42;0.70;;;;;;;22.13;54.07;100680.47;5035508;28;20021;-62
2021/07/05 03:19:36;;;;;;;0.90;0.80;;;;;;;22.11;53.14;100681.72;5035582;28;20021;-61
2021/07/05 03:22:03;;;;;;;2.65;0.50;;;;;;;22.09;53.31;100686.50;5034099;28;20120;-61
2021/07/05 03:24:28;;;;;;;4.50;0.70;;;;;;;22.07;54.07;100689.47;5035122;28;20044;-61
2021/07/05 03:26:53;;;;;;;0.40;0.40;;;;;;;22.07;52.91;100694.94;5034715;28;20018;-61
2021/07/05 03:29:19;;;;;;;0.57;0.57;;;;;;;22.05;53.56;100691.56;5034903;28;20501;-62
2021/07/05 03:31:44;;;;;;;0.63;0.57;;;;;;;22.10;53.98;100697.25;5035111;28;20025;-61
2021/07/05 03:34:10;;;;;;;3.50;0.68;;;;;;;22.13;53.03;100691.38;5035107;28;20412;-61
2021/07/05 03:36:35;;;;;;;3.92;1.30;;;;;;;22.15;53.24;100683.81;5034660;28;20083;-61
2021/07/05 03:39:00;;;;;;;0.65;0.65;;;;;;;22.18;52.68;100693.47;5034811;28;20029;-61
2021/07/05 03:41:26;;;;;;;2.60;0.55;;;;;;;22.20;52.96;100692.22;5034708;28;20036;-60
2021/07/05 03:43:51;;;;;;;1.30;0.55;;;;;;;22.23;52.61;100686.34;5035224;28;20033;-61
2021/07/05 03:46:16;;;;;;;5.43;0.70;;;;;;;22.27;53.50;100692.22;5034760;28;20128;-61
2021/07/05 03:48:42;;;;;;;4.05;0.65;;;;;;;22.26;53.29;100687.81;5034304;28;20101;-61
2021/07/05 03:51:07;;;;;;;0.60;0.50;;;;;;;22.29;52.73;100690.97;5034518;28;20030;-61
2021/07/05 03:53:32;;;;;;;1.70;0.95;;;;;;;22.31;52.30;100699.78;5033191;28;20025;-61
2021/07/05 03:55:58;;;;;;;2.83;0.60;;;;;;;22.33;52.94;100694.97;5034764;28;20029;-61
2021/07/05 03:58:23;;;;;;;0.50;0.50;;;;;;;22.33;53.13;100686.78;5034265;28;20059;-61
2021/07/05 04:00:49;;;;;;;4.65;0.60;;;;;;;22.34;52.27;100688.44;5034485;28;20030;-60
2021/07/05 04:03:15;;;;;;;1.48;0.73;;;;;;;22.35;53.11;100684.69;5034550;28;20477;-61
2021/07/05 04:05:41;;;;;;;0.98;0.60;;;;;;;22.35;52.46;100681.94;5050839;28;20041;-61
2021/07/05 04:08:06;;;;;;;0.77;0.60;;;;;;;22.35;52.44;100679.22;5054041;28;20131;-61
2021/07/05 04:10:32;;;;;;;0.60;0.60;;;;;;;22.36;52.94;100686.34;5054171;28;20056;-61
2021/07/05 04:12:58;;;;;;;1.33;0.55;;;;;;;22.36;52.49;100678.16;5036002;28;20053;-60
2021/07/05 04:15:23;;;;;;;1.58;0.65;;;;;;;22.36;51.94;100685.53;5054240;28;20048;-61
2021/07/05 04:17:49;;;;;;;2.78;0.73;;;;;;;22.40;52.14;100692.22;5054117;28;20031;-61
2021/07/05 04:20:19;;;;;;;0.90;0.88;;;;;;;22.37;52.23;100681.72;5054117;28;20377;-61
2021/07/05 04:22:45;;;;;;;2.70;1.00;;;;;;;22.41;51.92;100683.84;5054122;28;20492;-61
2021/07/05 04:25:12;;;;;;;4.18;1.38;;;;;;;22.40;52.84;100687.59;5054614;28;20021;-61
2021/07/05 04:27:37;;;;;;;4.38;1.15;;;;;;;22.42;51.79;100679.19;5053431;28;20428;-61
2021/07/05 04:30:05;;;;;;;1.20;0.73;;;;;;;22.44;51.79;100688.88;5053893;28;20029;-61
2021/07/05 04:32:31;;;;;;;3.55;0.88;;;;;;;22.42;52.84;100685.50;5053942;28;20024;-61
2021/07/05 04:34:56;;;;;;;3.22;1.17;;;;;;;22.45;52.73;100690.53;5054001;28;20037;-61
2021/07/05 04:37:22;;;;;;;3.75;1.23;;;;;;;22.42;52.25;100681.94;5053882;28;20020;-60
2021/07/05 04:39:48;;;;;;;1.63;1.10;;;;;;;22.48;52.14;100683.81;5053509;28;20032;-60
2021/07/05 04:42:13;;;;;;;2.90;1.25;;;;;;;22.48;51.85;100672.91;5053915;28;20036;-60
2021/07/05 04:44:40;;;;;;;1.27;0.95;;;;;;;22.50;51.86;100668.91;5053896;28;20108;-60
2021/07/05 04:47:06;;;;;;;3.55;0.95;;;;;;;22.52;52.85;100665.97;5053730;28;20025;-61
2021/07/05 04:49:31;;;;;;;5.82;0.90;;;;;;;22.54;52.92;100674.78;5053825;28;20027;-61
2021/07/05 04:51:56;;;;;;;3.13;0.90;;;;;;;22.52;52.42;100658.63;5053438;28;20073;-61
2021/07/05 04:54:22;;;;;;;1.95;0.90;;;;;;;22.58;51.82;100662.41;5053674;28;20049;-61
2021/07/05 04:56:47;;;;;;;1.92;1.05;;;;;;;22.62;51.88;100663.66;5053981;28;20025;-61
2021/07/05 04:59:14;;;;;;;3.35;1.30;;;;;;;22.58;52.08;100641.38;5035938;28;20029;-61
2021/07/05 05:01:40;;;;;;;1.90;1.70;;;;;;;22.65;52.79;100646.88;5054053;28;20044;-62
2021/07/05 05:04:05;;;;;;;3.80;1.42;;;;;;;22.69;51.98;100641.84;5053262;28;20606;-62
2021/07/05 05:06:30;;;;;;;3.45;1.15;;;;;;;22.71;52.61;100639.72;5053679;28;20032;-60
2021/07/05 05:09:17;;;;;;;1.85;1.15;;;;;;;22.78;52.54;100646.03;5053549;28;20100;-60
2021/07/05 05:11:42;;;;;;;2.85;0.95;;;;;;;22.83;52.24;100638.88;5053758;28;20032;-63
2021/07/05 05:14:08;;;;;;;4.38;1.10;;;;;;;22.88;51.84;100639.06;5053506;28;20029;-60
2021/07/05 05:16:33;;;;;;;6.43;1.20;;;;;;;22.87;52.49;100639.28;5053244;28;20029;-60
2021/07/05 05:18:59;;;;;;;5.20;1.30;;;;;;;22.94;52.18;100651.03;5053452;28;20028;-61
2021/07/05 05:21:24;;;;;;;2.08;1.02;;;;;;;22.98;51.79;100644.06;5035812;28;20036;-61
2021/07/05 05:23:49;;;;;;;7.03;1.48;;;;;;;23.04;51.92;100651.41;5053885;28;20035;-60
2021/07/05 05:26:15;;;;;;;3.78;1.20;;;;;;;23.11;52.73;100646.78;5053661;28;20033;-60
2021/07/05 05:28:40;;;;;;;7.22;0.88;;;;;;;23.16;51.82;100639.63;5052942;28;20024;-60
2021/07/05 05:31:06;;;;;;;5.70;1.10;;;;;;;23.26;51.61;100632.84;5053367;28;20036;-60
2021/07/05 05:33:31;;;;;;;2.13;1.02;;;;;;;23.32;52.08;100643.75;5053084;28;20021;-59
2021/07/05 05:35:57;;;;;;;4.50;1.10;;;;;;;23.39;51.90;100636.41;5053536;28;20074;-60
2021/07/05 05:38:22;;;;;;;3.83;0.90;;;;;;;23.45;51.73;100629.25;5053298;28;20461;-59
2021/07/05 05:40:47;;;;;;;0.95;0.73;;;;;;;23.51;51.41;100631.91;5038609;28;20104;-60
2021/07/05 05:43:13;;;;;;;2.15;1.05;;;;;;;23.53;51.13;100629.81;5056925;28;20458;-59
2021/07/05 05:45:38;;;;;;;2.15;1.05;;;;;;;23.57;51.19;100622.84;5056875;28;20025;-60
2021/07/05 05:48:04;;;;;;;2.55;1.20;;;;;;;23.61;51.97;100626.84;5056755;28;20099;-60
2021/07/05 05:50:30;;;;;;;3.53;0.98;;;;;;;23.66;51.93;100624.28;5056871;28;20096;-60
2021/07/05 05:52:55;;;;;;;2.22;1.05;;;;;;;23.72;51.26;100628.03;5056061;28;20186;-60
2021/07/05 05:55:21;;;;;;;6.30;1.80;;;;;;;23.78;51.78;100630.69;5056496;28;20094;-60
2021/07/05 05:57:46;;;;;;;3.85;0.93;;;;;;;23.86;51.93;100634.25;5056454;28;20037;-60
2021/07/05 06:00:19;;;;;;;3.75;1.20;;;;;;;23.91;51.53;100637.16;5057124;28;20044;-60
2021/07/05 06:02:46;;;;;;;2.20;1.73;;;;;;;23.84;51.39;100625.44;5056905;28;20040;-60
2021/07/05 06:05:11;;;;;;;4.57;2.30;;;;;;;23.94;50.88;100648.50;5056055;28;20060;-60
2021/07/05 06:07:37;;;;;;;4.40;1.42;;;;;;;23.94;51.36;100650.41;5056648;28;20074;-60
2021/07/05 06:10:04;;;;;;;3.33;1.35;;;;;;;23.92;51.71;100638.84;5056344;28;20103;-60
2021/07/05 06:12:29;;;;;;;4.82;1.50;;;;;;;23.93;51.66;100629.56;5055925;28;20487;-60
2021/07/05 06:14:55;;;;;;;2.40;1.88;;;;;;;23.93;51.19;100635.88;5056359;28;20021;-59
2021/07/05 06:17:20;;;;;;;3.65;1.58;;;;;;;23.96;51.36;100640.06;5038262;28;20059;-60
2021/07/05 06:19:45;;;;;;;2.20;1.40;;;;;;;23.97;50.60;100648.06;5056260;28;20458;-60
2021/07/05 06:22:17;;;;;;;4.60;2.20;;;;;;;23.97;51.54;100641.75;5056356;28;20049;-59
2021/07/05 06:24:46;;;;;;;4.72;1.73;;;;;;;24.01;50.77;100643.00;5057012;28;20021;-60
2021/07/05 06:27:11;;;;;;;4.75;1.75;;;;;;;24.05;51.49;100644.22;5055927;28;20470;-60
2021/07/05 06:29:37;;;;;;;2.70;1.67;;;;;;;24.11;51.42;100637.91;5056057;28;20031;-60
2021/07/05 06:32:03;;;;;;;5.35;1.30;;;;;;;24.12;50.53;100645.88;5056141;28;20079;-60
2021/07/05 06:34:29;;;;;;;6.22;1.33;;;;;;;24.14;50.92;100648.41;5055650;28;20097;-61
2021/07/05 06:36:54;;;;;;;9.32;1.90;;;;;;;24.16;50.68;100655.34;5055594;28;20025;-60
2021/07/05 06:39:19;;;;;;;2.00;1.23;;;;;;;24.19;50.55;100659.53;5056110;28;20038;-60
2021/07/05 06:41:44;;;;;;;5.40;1.60;;;;;;;24.19;50.43;100665.84;5055419;28;20029;-60
2021/07/05 06:44:10;;;;;;;4.97;2.20;;;;;;;24.06;51.25;100645.91;5055953;28;20033;-60
2021/07/05 06:46:35;;;;;;;3.65;1.70;;;;;;;24.12;50.71;100664.22;5055823;28;20157;-60
2021/07/05 06:49:00;;;;;;;5.20;1.55;;;;;;;24.13;50.90;100668.63;5055687;28;20423;-60
2021/07/05 06:51:26;;;;;;;6.35;1.65;;;;;;;24.13;51.26;100668.63;5055251;28;20044;-60
2021/07/05 06:53:51;;;;;;;5.72;1.65;;;;;;;24.14;50.62;100670.31;5055592;28;20100;-60
2021/07/05 06:56:16;;;;;;;3.30;1.38;;;;;;;24.15;50.24;100669.22;5055446;28;20074;-60
2021/07/05 06:58:42;;;;;;;4.63;1.67;;;;;;;24.12;50.36;100669.69;5055392;28;20028;-60
2021/07/05 07:01:07;;;;;;;5.28;1.63;;;;;;;24.11;50.23;100662.53;5055386;28;20028;-61
2021/07/05 07:03:33;;;;;;;6.32;2.00;;;;;;;24.14;50.08;100662.09;5055466;28;20025;-60
2021/07/05 07:05:58;;;;;;;1.73;1.33;;;;;;;24.19;50.69;100657.63;5054936;28;20045;-60
2021/07/05 07:08:23;;;;;;;4.97;1.50;;;;;;;24.26;49.95;100655.66;5055266;28;20099;-60
2021/07/05 07:10:49;;;;;;;4.72;1.10;;;;;;;24.34;50.40;100654.56;5055085;28;20017;-60
2021/07/05 07:13:16;;;;;;;5.80;1.67;;;;;;;24.47;50.81;100651.72;5055556;28;20372;-60
2021/07/05 07:15:46;;;;;;;4.82;1.63;;;;;;;24.61;50.09;100658.75;5055071;28;20512;-60
2021/07/05 07:20:55;;;;;;;2.22;1.45;;;;;;;24.89;49.63;100659.16;5054902;28;20021;-60
2021/07/05 07:23:20;;;;;;;13.45;2.75;;;;;;;25.01;49.69;100669.34;5055255;28;20029;-60
2021/07/05 07:25:45;;;;;;;3.40;1.90;;;;;;;25.07;49.37;100665.72;5036797;28;20053;-60
2021/07/05 07:28:11;;;;;;;10.85;1.80;;;;;;;25.10;49.35;100666.06;5055317;28;20063;-60
2021/07/05 07:30:36;;;;;;;5.80;1.63;;;;;;;25.15;49.80;100673.63;5054826;28;20466;-60
2021/07/05 07:33:02;;;;;;;4.82;1.38;;;;;;;25.22;49.71;100669.75;5055049;28;20112;-60
2021/07/05 07:35:27;;;;;;;6.32;1.60;;;;;;;25.29;49.26;100672.41;5054780;28;20032;-60
2021/07/05 07:37:53;;;;;;;3.78;1.50;;;;;;;25.31;49.74;100665.63;5054350;28;20079;-60
2021/07/05 07:40:21;;;;;;;3.00;1.50;;;;;;;25.35;48.88;100665.97;5054254;28;20033;-60
2021/07/05 07:42:47;;;;;;;3.75;1.40;;;;;;;25.39;49.52;100668.06;5054206;28;20037;-60
2021/07/05 07:45:14;;;;;;;1.15;0.88;;;;;;;25.41;49.47;100671.41;5036503;28;20431;-60
2021/07/05 07:47:40;;;;;;;3.05;1.60;;;;;;;25.39;49.28;100676.28;5037046;28;20032;-60
2021/07/05 07:50:08;;;;;;;3.50;1.23;;;;;;;25.44;48.88;100681.06;5055028;28;20036;-60
2021/07/05 07:52:34;;;;;;;8.15;1.73;;;;;;;25.49;49.05;100673.00;5036385;28;20029;-60
2021/07/05 07:55:01;;;;;;;3.80;1.33;;;;;;;25.57;48.57;100672.72;5054449;28;20500;-60
2021/07/05 07:57:27;;;;;;;2.10;1.30;;;;;;;25.65;49.04;100674.31;5054306;28;20059;-60
2021/07/05 07:59:52;;;;;;;3.22;1.17;;;;;;;25.71;48.62;100674.19;5054194;28;20435;-60
2021/07/05 08:02:17;;;;;;;3.30;1.27;;;;;;;25.79;48.82;100682.13;5053724;28;20056;-60
2021/07/05 08:04:43;;;;;;;3.95;1.40;;;;;;;25.80;48.13;100677.47;5053920;28;20041;-60
2021/07/05 08:07:08;;;;;;;3.55;1.33;;;;;;;25.81;48.97;100680.00;5054358;28;20024;-60
2021/07/05 08:09:34;;;;;;;11.60;1.48;;;;;;;25.85;48.49;100681.19;5054240;28;20051;-60
2021/07/05 08:11:59;;;;;;;4.13;1.33;;;;;;;25.83;48.99;100680.59;5054271;28;20021;-60
2021/07/05 08:14:25;;;;;;;5.82;1.33;;;;;;;25.84;48.62;100687.75;5053851;28;20071;-60
2021/07/05 08:16:50;;;;;;;10.20;1.48;;;;;;;25.86;48.77;100682.88;5054410;28;20472;-60
2021/07/05 08:19:16;;;;;;;7.85;1.25;;;;;;;25.85;48.40;100689.41;5053922;28;20033;-60
2021/07/05 08:21:41;;;;;;;5.57;1.33;;;;;;;25.84;48.69;100690.50;5053836;28;20029;-60
2021/07/05 08:24:08;;;;;;;2.35;1.27;;;;;;;25.81;48.57;100704.69;5036224;28;20049;-60
2021/07/05 08:26:34;;;;;;;6.00;1.23;;;;;;;25.78;48.71;100699.66;5054002;28;20515;-60
2021/07/05 08:29:01;;;;;;;1.55;1.10;;;;;;;25.79;48.40;100693.13;5054224;28;20055;-60
2021/07/05 08:31:26;;;;;;;3.45;1.30;;;;;;;25.80;48.38;100694.78;5053956;28;20365;-60
2021/07/05 08:33:52;;;;;;;3.67;0.85;;;;;;;25.81;48.74;100695.63;5053911;28;20033;-60
2021/07/05 08:36:21;;;;;;;2.95;1.42;;;;;;;25.83;48.31;100698.97;5054053;28;20037;-60
2021/07/05 08:38:47;;;;;;;3.90;1.13;;;;;;;25.80;48.40;100694.78;5053779;28;20033;-60
2021/07/05 08:41:12;;;;;;;6.63;1.40;;;;;;;25.79;48.54;100697.75;5053906;28;20385;-60
2021/07/05 08:43:41;;;;;;;6.38;1.13;;;;;;;25.76;48.44;100704.56;5035883;28;20028;-60
2021/07/05 08:46:07;;;;;;;2.42;1.13;;;;;;;25.71;48.64;100696.16;5053646;28;20122;-60
2021/07/05 08:48:35;;;;;;;5.78;1.30;;;;;;;25.66;48.61;100698.75;5053633;28;20075;-60
2021/07/05 08:51:02;;;;;;;3.88;1.20;;;;;;;25.67;48.75;100699.59;5053764;28;20018;-60
2021/07/05 08:53:28;;;;;;;2.50;0.90;;;;;;;25.69;48.65;100691.97;5053698;28;20413;-60
2021/07/05 08:55:54;;;;;;;4.53;1.05;;;;;;;25.70;48.54;100688.16;5053363;28;20146;-61
2021/07/05 08:58:19;;;;;;;5.35;1.30;;;;;;;25.79;48.43;100692.28;5053574;28;20384;-60
2021/07/05 09:00:44;;;;;;;120.53;20.02;;;;;;;25.85;48.52;100694.91;5053456;28;20032;-60
2021/07/05 09:03:10;;;;;;;6.15;1.55;;;;;;;25.86;48.17;100688.34;5053944;28;20420;-60
2021/07/05 09:05:36;;;;;;;10.55;1.83;;;;;;;25.87;48.51;100701.03;5053102;28;20409;-60
2021/07/05 09:08:05;;;;;;;3.10;1.30;;;;;;;25.87;48.59;100701.03;5053134;28;20031;-60
2021/07/05 09:10:43;;;;;;;2.78;1.30;;;;;;;25.97;47.93;100700.44;5035938;28;20450;-60
2021/07/05 09:13:08;;;;;;;7.05;1.25;;;;;;;26.08;47.87;100701.56;5053410;28;20021;-60
2021/07/05 09:15:39;;;;;;;1.52;1.27;;;;;;;26.11;47.79;100703.84;5057573;28;20106;-60
2021/07/05 09:18:32;;;;;;;3.20;1.30;;;;;;;26.18;48.07;100685.41;5057078;28;20078;-59
2021/07/05 09:21:08;;;;;;;3.25;1.60;;;;;;;26.25;48.23;100691.63;5057259;28;20029;-59
2021/07/05 09:23:34;;;;;;;4.30;1.08;;;;;;;26.25;48.35;100686.13;5057137;28;20028;-60
2021/07/05 09:25:59;;;;;;;2.92;1.75;;;;;;;26.27;47.86;100684.81;5056786;28;20032;-60
2021/07/05 09:28:25;;;;;;;2.33;0.95;;;;;;;26.34;47.68;100679.22;5039100;28;20025;-59
2021/07/05 09:30:54;;;;;;;4.88;1.13;;;;;;;26.47;47.41;100674.34;5056995;28;20025;-60
2021/07/05 09:33:21;;;;;;;2.75;1.23;;;;;;;26.69;47.57;100682.84;5057377;28;20063;-60
2021/07/05 09:35:48;;;;;;;7.03;1.30;;;;;;;27.03;46.87;100689.47;5057649;28;20071;-60
2021/07/05 09:38:27;;;;;;;5.03;1.45;;;;;;;27.27;46.76;100679.28;5057290;28;20120;-60
2021/07/05 09:40:52;;;;;;;5.15;1.23;;;;;;;27.39;46.69;100677.31;5056547;28;20057;-60
2021/07/05 09:43:23;;;;;;;7.13;1.30;;;;;;;27.47;47.01;100682.50;5056456;28;20029;-60
2021/07/05 09:45:48;;;;;;;3.72;1.33;;;;;;;27.59;46.51;100678.63;5056746;28;20025;-60
2021/07/05 09:48:19;;;;;;;4.35;1.30;;;;;;;27.90;46.19;100673.72;5056680;28;20535;-60
2021/07/05 09:50:48;;;;;;;4.38;1.70;;;;;;;28.10;45.20;100680.47;5056602;28;20406;-60
2021/07/05 09:53:24;;;;;;;2.88;1.13;;;;;;;28.09;45.70;100673.28;5056926;28;20025;-60
2021/07/05 09:55:50;;;;;;;4.20;1.10;;;;;;;28.05;46.06;100666.63;5060294;28;20039;-60
2021/07/05 09:58:15;;;;;;;3.38;1.27;;;;;;;28.02;45.12;100672.59;5046276;28;20079;-60
2021/07/05 10:00:42;;;;;;;2.88;1.00;;;;;;;28.01;44.82;100665.41;5043876;28;20029;-60
2021/07/05 10:03:09;;;;;;;4.15;1.40;;;;;;;27.93;45.31;100665.78;5024515;28;20033;-60
2021/07/05 10:05:36;;;;;;;8.43;1.48;;;;;;;27.85;45.64;100668.09;5038030;28;20413;-60
2021/07/05 10:08:09;;;;;;;4.68;1.60;;;;;;;27.81;45.22;100664.16;5056079;28;20017;-60
2021/07/05 10:10:38;;;;;;;4.63;2.30;;;;;;;27.77;46.05;100660.25;5056251;28;20079;-60
2021/07/05 10:13:06;;;;;;;4.10;1.30;;;;;;;27.71;46.22;100659.31;5056549;28;20369;-60
2021/07/05 10:15:32;;;;;;;1.77;0.90;;;;;;;27.67;45.71;100658.13;5055850;28;20496;-60
2021/07/05 10:17:58;;;;;;;2.50;1.25;;;;;;;27.65;46.07;100658.38;5055899;28;20021;-60
2021/07/05 10:20:39;;;;;;;5.45;1.00;;;;;;;27.62;45.19;100655.28;5038228;28;20029;-60
2021/07/05 10:23:08;;;;;;;5.47;1.42;;;;;;;27.60;45.75;100652.78;5038356;28;20021;-61
2021/07/05 10:25:35;;;;;;;2.00;1.58;;;;;;;27.60;45.49;100658.28;5055010;28;20047;-60
2021/07/05 10:28:01;;;;;;;3.78;0.90;;;;;;;27.52;46.14;100655.06;5056308;28;20025;-60
2021/07/05 10:30:27;;;;;;;1.70;0.90;;;;;;;27.38;46.13;100665.50;5055886;28;20092;-60
2021/07/05 10:32:53;;;;;;;1.13;0.70;;;;;;;27.26;45.99;100656.44;5055596;28;20021;-60
2021/07/05 10:35:34;;;;;;;2.65;0.47;;;;;;;27.20;45.52;100662.88;5055234;28;20021;-61
2021/07/05 10:38:19;;;;;;;2.47;0.50;;;;;;;27.30;45.71;100656.78;5055659;28;20469;-60
2021/07/05 10:40:50;;;;;;;1.67;0.88;;;;;;;27.43;44.92;100651.03;5054920;28;20072;-60
2021/07/05 10:43:21;;;;;;;3.80;1.00;;;;;;;27.63;45.60;100651.44;5054917;28;20115;-60
2021/07/05 10:45:49;;;;;;;2.25;1.45;;;;;;;27.80;44.78;100646.84;5055482;28;20033;-60
2021/07/05 10:48:17;;;;;;;3.80;0.70;;;;;;;27.97;45.05;100644.97;5055460;28;20023;-59
2021/07/05 10:50:43;;;;;;;2.92;0.55;;;;;;;28.10;44.36;100638.31;5055445;28;20429;-60
2021/07/05 10:53:19;;;;;;;1.67;0.57;;;;;;;28.13;43.79;100641.41;5055086;28;20029;-60
2021/07/05 10:55:48;;;;;;;1.33;0.40;;;;;;;28.15;43.65;100647.50;5055439;28;20033;-60
2021/07/05 10:58:16;;;;;;;0.50;0.50;;;;;;;28.27;43.13;100642.75;5037180;28;20021;-60
2021/07/05 11:00:44;;;;;;;2.60;0.82;;;;;;;28.33;43.84;100634.56;5054961;28;20421;-60
2021/07/05 11:03:10;;;;;;;3.60;0.50;;;;;;;28.30;43.38;100633.16;5055366;28;20140;-61
2021/07/05 11:05:45;;;;;;;2.03;0.70;;;;;;;28.36;42.51;100639.59;5054897;28;20512;-60
2021/07/05 11:08:25;;;;;;;0.93;0.40;;;;;;;28.38;43.04;100637.41;5055113;28;20029;-60
2021/07/05 11:11:10;;;;;;;1.85;0.63;;;;;;;28.45;43.18;100638.09;5055065;28;20048;-62
2021/07/05 11:13:36;;;;;;;2.17;0.73;;;;;;;28.68;41.82;100632.41;5055283;28;20029;-60
2021/07/05 11:16:01;;;;;;;2.15;0.82;;;;;;;28.91;41.57;100632.22;5055072;28;20350;-60
2021/07/05 11:18:39;;;;;;;2.20;0.73;;;;;;;29.21;41.92;100631.78;5054970;28;20035;-59
2021/07/05 11:21:05;;;;;;;3.45;0.55;;;;;;;29.36;40.91;100630.09;5054420;28;20025;-61
2021/07/05 11:24:02;;;;;;;0.70;0.60;;;;;;;29.42;41.24;100629.06;5055191;28;20017;-60
2021/07/05 11:26:35;;;;;;;9.75;4.68;;;;;;;29.45;40.34;100628.53;5054836;28;20017;-54